Rockledge, Pennsylvania
Current Conditions -  °F | °C
As of 1:54 PM on Monday 20 Oct 2014 (Local Time) from KPNE Reporting Station
Clear Clear  
Wind Chill: 63°   Ceiling: Unl
Heat Index: 63°   Visibility: 10mi
Dew Point: 35°   Wind: 10mph
Humidity: 35%   Direction: 210°SSW
Pressure: 30.04"   Gusts: 21mph
Location:  40.1039°N, 75.1072°W
Report Text: KPNE 201754Z 21009G18KT 10SM CLR 17/02 A3004 RMK AO2 SLP171 T01720017 10172 20033 58033 $
Loading
Personal Weather Stations






























Interactive Weather Map
Tropical Storm Tracking
New forecast layout! Learn more

10-Day Weather Forecast

Advertisements
Track Severe Weather on mobile